createdAt,value
2019-05-22T00:01:00.778Z,11.90
2019-05-22T00:03:39.833Z,11.90
2019-05-22T00:06:10.728Z,12.00
2019-05-22T00:08:43.587Z,12.00
2019-05-22T00:11:15.390Z,12.00
2019-05-22T00:13:47.825Z,12.00
2019-05-22T00:16:20.771Z,12.00
2019-05-22T00:18:52.422Z,12.00
2019-05-22T00:21:23.281Z,12.00
2019-05-22T00:23:54.650Z,12.00
2019-05-22T00:26:25.450Z,12.00
2019-05-22T00:28:56.335Z,12.00
2019-05-22T00:31:27.370Z,12.00
2019-05-22T00:34:00.234Z,12.00
2019-05-22T00:36:31.276Z,12.00
2019-05-22T00:39:03.701Z,12.00
2019-05-22T00:41:35.504Z,12.00
2019-05-22T00:44:08.386Z,12.00
2019-05-22T00:46:40.513Z,11.90
2019-05-22T00:49:13.548Z,11.90
2019-05-22T00:52:07.405Z,11.90
2019-05-22T00:54:55.557Z,11.90
2019-05-22T00:57:35.198Z,11.90
2019-05-22T01:00:24.360Z,11.80
2019-05-22T01:02:56.942Z,11.80
2019-05-22T01:05:29.542Z,11.80
2019-05-22T01:08:01.771Z,11.80
2019-05-22T01:10:33.136Z,11.80
2019-05-22T01:13:04.451Z,11.80
2019-05-22T01:15:35.793Z,11.80
2019-05-22T01:18:10.712Z,11.80
2019-05-22T01:20:42.767Z,11.90
2019-05-22T01:23:18.131Z,12.00
2019-05-22T01:25:48.828Z,12.00
2019-05-22T01:28:21.721Z,12.00
2019-05-22T01:30:55.083Z,12.00
2019-05-22T01:33:32.478Z,12.00
2019-05-22T01:36:30.989Z,12.00
2019-05-22T01:39:22.156Z,12.00
2019-05-22T01:41:56.303Z,12.00
2019-05-22T01:44:30.551Z,11.90
2019-05-22T01:47:06.812Z,12.00
2019-05-22T01:49:58.053Z,12.00
2019-05-22T01:52:30.557Z,12.00
2019-05-22T01:55:01.796Z,11.90
2019-05-22T01:57:32.811Z,11.90
2019-05-22T02:00:05.569Z,11.90
2019-05-22T02:02:37.513Z,11.90
2019-05-22T02:05:09.938Z,11.90
2019-05-22T02:07:41.933Z,11.90
2019-05-22T02:10:18.524Z,11.90
2019-05-22T02:12:55.021Z,11.90
2019-05-22T02:15:27.627Z,11.90
2019-05-22T02:18:02.535Z,11.90
2019-05-22T02:20:33.631Z,11.90
2019-05-22T02:23:06.115Z,12.00
2019-05-22T02:25:37.919Z,12.00
2019-05-22T02:28:09.208Z,12.00
2019-05-22T02:30:42.719Z,12.00
2019-05-22T02:33:14.679Z,12.00
2019-05-22T02:35:47.482Z,12.00
2019-05-22T02:38:18.957Z,12.00
2019-05-22T02:40:53.134Z,12.00
2019-05-22T02:43:26.539Z,12.00
2019-05-22T02:45:57.724Z,12.00
2019-05-22T02:48:30.171Z,12.10
2019-05-22T02:51:02.014Z,12.00
2019-05-22T02:53:32.700Z,12.00
2019-05-22T02:56:04.000Z,12.00
2019-05-22T02:58:34.827Z,12.00
2019-05-22T03:01:06.588Z,12.00
2019-05-22T03:03:39.010Z,12.00
2019-05-22T03:06:13.377Z,12.00
2019-05-22T03:09:04.870Z,12.00
2019-05-22T03:11:39.681Z,12.00
2019-05-22T03:14:11.600Z,12.00
2019-05-22T03:16:51.891Z,12.00
2019-05-22T03:19:33.782Z,12.00
2019-05-22T03:22:18.970Z,12.00
2019-05-22T03:24:51.492Z,12.10
2019-05-22T03:27:44.167Z,12.00
2019-05-22T03:30:26.837Z,12.00
2019-05-22T03:32:59.272Z,12.00
2019-05-22T03:35:31.756Z,12.00
2019-05-22T03:38:04.448Z,12.00
2019-05-22T03:40:37.704Z,12.00
2019-05-22T03:43:18.059Z,12.00
2019-05-22T03:45:50.720Z,12.10
2019-05-22T03:48:22.521Z,12.10
2019-05-22T03:50:57.105Z,12.10
2019-05-22T03:53:27.686Z,12.10
2019-05-22T03:55:58.245Z,12.10
2019-05-22T03:58:28.842Z,12.10
2019-05-22T04:01:01.352Z,12.10
2019-05-22T04:03:33.089Z,12.10
2019-05-22T04:06:05.332Z,12.10
2019-05-22T04:08:37.373Z,12.10
2019-05-22T04:11:10.302Z,12.10
2019-05-22T04:13:40.815Z,12.10
2019-05-22T04:16:13.971Z,12.10
2019-05-22T04:18:45.077Z,12.00
2019-05-22T04:21:15.745Z,12.00
2019-05-22T04:23:46.323Z,12.10
2019-05-22T04:26:18.690Z,12.10
2019-05-22T04:28:53.032Z,12.10
2019-05-22T04:31:48.881Z,12.10
2019-05-22T04:34:22.039Z,12.10
2019-05-22T04:36:53.943Z,12.00
2019-05-22T04:39:27.365Z,12.00
2019-05-22T04:45:15.437Z,12.00
2019-05-22T04:47:57.095Z,12.10
2019-05-22T04:50:28.852Z,12.10
2019-05-22T04:53:01.208Z,12.10
2019-05-22T04:55:33.332Z,12.10
2019-05-22T04:58:07.145Z,12.10
2019-05-22T05:00:38.294Z,12.10
2019-05-22T05:03:10.817Z,12.10
2019-05-22T05:05:43.681Z,12.10
2019-05-22T05:08:15.208Z,12.10
2019-05-22T05:10:48.284Z,12.10
2019-05-22T05:13:20.376Z,12.10
2019-05-22T05:15:51.023Z,12.00
2019-05-22T05:18:21.671Z,12.00
2019-05-22T05:20:52.409Z,11.90
2019-05-22T05:23:23.184Z,11.90
2019-05-22T05:25:53.923Z,11.90
2019-05-22T05:28:24.794Z,11.90
2019-05-22T05:30:57.231Z,11.80
2019-05-22T05:33:30.981Z,11.80
2019-05-22T05:36:01.780Z,11.90
2019-05-22T05:38:36.311Z,11.90
2019-05-22T05:41:07.701Z,11.90
2019-05-22T05:43:38.254Z,11.90
2019-05-22T05:46:08.980Z,11.90
2019-05-22T05:48:42.145Z,11.90
2019-05-22T05:55:28.494Z,11.90
2019-05-22T05:58:37.400Z,11.90
2019-05-22T06:08:00.801Z,12.00
2019-05-22T06:18:19.316Z,12.00
2019-05-22T06:24:58.648Z,12.00
2019-05-22T06:28:08.576Z,12.00
2019-05-22T06:38:30.411Z,12.10
2019-05-22T06:44:49.638Z,12.30
2019-05-22T06:47:58.680Z,12.30
2019-05-22T06:51:19.020Z,12.30
2019-05-22T07:00:50.202Z,12.30
2019-05-22T07:03:59.218Z,12.30
2019-05-22T07:17:00.025Z,12.30
2019-05-22T07:23:38.720Z,12.30
2019-05-22T07:33:41.606Z,12.40
2019-05-22T07:36:50.679Z,12.50
2019-05-22T07:39:40.318Z,12.60
2019-05-22T07:52:42.456Z,12.80
2019-05-22T07:55:24.747Z,12.80
2019-05-22T07:58:06.945Z,12.80
2019-05-22T08:00:51.723Z,12.70
2019-05-22T08:03:34.300Z,12.70
2019-05-22T08:06:16.598Z,12.70
2019-05-22T08:08:58.734Z,12.70
2019-05-22T08:11:40.745Z,12.60
2019-05-22T08:14:22.957Z,12.50
2019-05-22T08:17:05.196Z,12.50
2019-05-22T08:19:47.043Z,12.50
2019-05-22T08:22:28.728Z,12.50
2019-05-22T08:25:11.216Z,12.50
2019-05-22T08:27:53.533Z,12.50
2019-05-22T08:30:36.970Z,12.50
2019-05-22T08:33:19.672Z,12.50
2019-05-22T08:36:01.836Z,12.50
2019-05-22T08:38:44.463Z,12.50
2019-05-22T08:41:27.038Z,12.60
2019-05-22T08:44:16.841Z,12.60
2019-05-22T08:46:53.043Z,12.70
2019-05-22T08:49:35.138Z,12.70
2019-05-22T08:52:23.640Z,12.70
2019-05-22T08:55:02.550Z,12.70
2019-05-22T08:57:44.856Z,12.80
2019-05-22T09:00:28.288Z,12.80
2019-05-22T09:03:10.719Z,12.80
2019-05-22T09:05:53.321Z,12.90
2019-05-22T09:08:35.572Z,12.90
2019-05-22T09:11:18.005Z,12.90
2019-05-22T09:13:59.961Z,13.00
2019-05-22T09:16:42.486Z,13.10
2019-05-22T09:19:25.620Z,13.10
2019-05-22T09:22:08.847Z,13.20
2019-05-22T09:24:52.282Z,13.20
2019-05-22T09:27:35.038Z,13.30
2019-05-22T09:30:17.743Z,13.40
2019-05-22T09:33:00.403Z,13.40
2019-05-22T09:35:42.599Z,13.40
2019-05-22T09:38:24.550Z,13.50
2019-05-22T09:41:06.532Z,13.50
2019-05-22T09:43:48.495Z,13.50
2019-05-22T09:46:30.547Z,13.50
2019-05-22T09:49:13.004Z,13.50
2019-05-22T09:51:54.891Z,13.50
2019-05-22T09:54:37.733Z,13.50
2019-05-22T09:57:20.332Z,13.50
2019-05-22T10:00:03.778Z,13.60
2019-05-22T10:02:46.311Z,13.60
2019-05-22T10:05:29.090Z,13.60
2019-05-22T10:08:11.434Z,13.70
2019-05-22T10:10:53.270Z,13.70
2019-05-22T10:13:35.601Z,13.70
2019-05-22T10:16:18.329Z,13.70
2019-05-22T10:19:00.591Z,13.70
2019-05-22T10:21:42.812Z,13.70
2019-05-22T10:24:25.470Z,13.70
2019-05-22T10:27:09.103Z,13.70
2019-05-22T10:29:51.487Z,13.70
2019-05-22T10:32:33.304Z,13.70
2019-05-22T10:35:16.031Z,13.70
2019-05-22T10:37:58.079Z,13.70
2019-05-22T10:40:40.137Z,13.70
2019-05-22T10:43:21.852Z,13.60
2019-05-22T10:46:04.234Z,13.60
2019-05-22T10:48:46.597Z,13.60
2019-05-22T10:51:28.421Z,13.70
2019-05-22T10:54:10.389Z,13.70
2019-05-22T10:56:52.734Z,13.60
2019-05-22T10:59:34.941Z,13.70
2019-05-22T11:02:16.926Z,13.70
2019-05-22T11:04:59.118Z,13.70
2019-05-22T11:07:41.558Z,13.70
2019-05-22T11:10:24.452Z,13.70
2019-05-22T11:13:06.622Z,13.70
2019-05-22T11:15:48.382Z,13.70
2019-05-22T11:18:30.239Z,13.70
2019-05-22T11:21:12.653Z,13.80
2019-05-22T11:23:55.286Z,13.70
2019-05-22T11:26:37.615Z,13.70
2019-05-22T11:29:20.563Z,13.80
2019-05-22T11:32:03.933Z,13.80
2019-05-22T11:34:46.259Z,13.80
2019-05-22T11:37:28.155Z,13.80
2019-05-22T11:40:10.329Z,13.90
2019-05-22T11:42:52.895Z,13.90
2019-05-22T11:45:34.985Z,13.90
2019-05-22T11:48:17.185Z,13.90
2019-05-22T11:51:01.078Z,14.00
2019-05-22T11:53:43.867Z,14.00
2019-05-22T11:56:26.592Z,14.00
2019-05-22T11:59:08.801Z,14.00
2019-05-22T12:01:51.364Z,14.00
2019-05-22T12:04:47.405Z,14.00
2019-05-22T12:07:16.665Z,14.00
2019-05-22T12:09:58.923Z,14.00
2019-05-22T12:12:41.443Z,14.00
2019-05-22T12:15:24.084Z,14.00
2019-05-22T12:18:06.959Z,14.00
2019-05-22T12:20:50.684Z,14.00
2019-05-22T12:23:32.740Z,14.00
2019-05-22T12:26:14.997Z,14.00
2019-05-22T12:28:57.592Z,14.10
2019-05-22T12:31:39.996Z,14.10
2019-05-22T12:34:22.339Z,14.10
2019-05-22T12:37:04.197Z,14.20
2019-05-22T12:39:46.366Z,14.20
2019-05-22T12:42:28.416Z,14.10
2019-05-22T12:45:10.408Z,14.20
2019-05-22T12:47:52.174Z,14.10
2019-05-22T12:50:34.131Z,14.10
2019-05-22T12:53:16.146Z,14.10
2019-05-22T12:55:58.279Z,14.10
2019-05-22T12:58:41.083Z,14.10
2019-05-22T13:01:22.944Z,14.10
2019-05-22T13:04:05.882Z,14.10
2019-05-22T13:06:47.934Z,14.20
2019-05-22T13:09:29.665Z,14.20
2019-05-22T13:12:12.742Z,14.20
2019-05-22T13:15:08.270Z,14.10
2019-05-22T13:17:39.258Z,14.10
2019-05-22T13:20:40.458Z,14.10
2019-05-22T13:23:07.711Z,14.10
2019-05-22T13:25:50.052Z,14.10
2019-05-22T13:28:32.345Z,14.10
2019-05-22T13:31:14.726Z,14.10
2019-05-22T13:33:56.886Z,14.10
2019-05-22T13:36:38.965Z,14.10
2019-05-22T13:39:22.108Z,14.10
2019-05-22T13:42:04.495Z,14.10
2019-05-22T13:44:46.957Z,14.10
2019-05-22T13:47:29.260Z,14.10
2019-05-22T13:50:10.981Z,14.10
2019-05-22T13:52:54.310Z,14.10
2019-05-22T13:55:36.602Z,14.10
2019-05-22T13:58:20.545Z,14.30
2019-05-22T14:01:03.403Z,14.20
2019-05-22T14:03:46.069Z,14.20
2019-05-22T14:06:28.347Z,14.20
2019-05-22T14:09:11.297Z,14.20
2019-05-22T14:11:53.323Z,14.20
2019-05-22T14:14:35.142Z,14.30
2019-05-22T14:17:17.235Z,14.30
2019-05-22T14:19:59.928Z,14.30
2019-05-22T14:22:42.342Z,14.20
2019-05-22T14:25:25.204Z,14.20
2019-05-22T14:28:08.126Z,14.20
2019-05-22T14:30:50.191Z,14.20
2019-05-22T14:33:32.217Z,14.20
2019-05-22T14:36:14.383Z,14.10
2019-05-22T14:38:56.640Z,14.10
2019-05-22T14:41:38.352Z,14.10
2019-05-22T14:44:21.669Z,14.10
2019-05-22T14:47:13.376Z,14.20
2019-05-22T14:49:47.121Z,14.10
2019-05-22T14:52:29.549Z,14.20
2019-05-22T14:55:12.029Z,14.20
2019-05-22T14:57:54.319Z,14.20
2019-05-22T15:00:38.055Z,14.10
2019-05-22T15:03:20.020Z,14.10
2019-05-22T15:06:02.519Z,14.20
2019-05-22T15:08:44.402Z,14.20
2019-05-22T15:11:26.509Z,14.30
2019-05-22T15:14:08.670Z,14.20
2019-05-22T15:16:50.388Z,14.20
2019-05-22T15:19:32.936Z,14.20
2019-05-22T15:22:15.674Z,14.30
2019-05-22T15:24:57.513Z,14.30
2019-05-22T15:27:39.262Z,14.30
2019-05-22T15:30:21.193Z,14.30
2019-05-22T15:33:03.400Z,14.30
2019-05-22T15:35:45.608Z,14.30
2019-05-22T15:38:31.061Z,14.30
2019-05-22T15:41:12.522Z,14.30
2019-05-22T15:57:59.327Z,14.30
2019-05-22T16:01:27.288Z,14.40
2019-05-22T16:07:33.008Z,14.30
2019-05-22T16:30:03.044Z,14.20
2019-05-22T16:36:05.661Z,14.30
2019-05-22T16:38:47.596Z,14.30
2019-05-22T16:41:30.232Z,14.30
2019-05-22T16:44:12.316Z,14.30
2019-05-22T16:46:54.419Z,14.30
2019-05-22T16:49:36.954Z,14.30
2019-05-22T16:52:19.131Z,14.30
2019-05-22T16:55:01.704Z,14.40
2019-05-22T16:57:43.864Z,14.40
2019-05-22T17:00:26.703Z,14.40
2019-05-22T17:03:09.831Z,14.30
2019-05-22T17:05:51.901Z,14.30
2019-05-22T17:08:33.934Z,14.30
2019-05-22T17:11:16.366Z,14.30
2019-05-22T17:14:01.423Z,14.30
2019-05-22T17:16:44.699Z,14.30
2019-05-22T17:19:27.828Z,14.30
2019-05-22T17:22:37.431Z,14.30
2019-05-22T17:32:22.721Z,14.20
2019-05-22T17:35:32.618Z,14.20
2019-05-22T17:38:22.895Z,14.20
2019-05-22T17:45:02.518Z,14.20
2019-05-22T18:07:45.682Z,14.10
2019-05-22T18:11:02.328Z,14.10
2019-05-22T18:14:11.015Z,14.10
2019-05-22T18:26:58.282Z,14.00
2019-05-22T18:30:07.461Z,14.00
2019-05-22T18:32:57.018Z,14.00
2019-05-22T18:36:25.024Z,14.00
2019-05-22T18:55:44.879Z,14.00
2019-05-22T19:05:38.403Z,13.90
2019-05-22T19:08:20.549Z,13.90
2019-05-22T19:11:02.416Z,13.90
2019-05-22T19:13:45.577Z,13.90
2019-05-22T19:16:27.706Z,13.80
2019-05-22T19:19:09.881Z,13.80
2019-05-22T19:21:51.968Z,13.70
2019-05-22T19:24:33.892Z,13.70
2019-05-22T19:27:15.937Z,13.70
2019-05-22T19:29:57.928Z,13.60
2019-05-22T19:32:40.183Z,13.60
2019-05-22T19:35:22.251Z,13.60
2019-05-22T19:38:04.255Z,13.60
2019-05-22T19:40:46.482Z,13.50
2019-05-22T19:43:28.517Z,13.50
2019-05-22T19:46:09.144Z,13.50
2019-05-22T19:48:58.777Z,13.40
2019-05-22T20:01:54.285Z,13.20
2019-05-22T20:11:41.089Z,13.10
2019-05-22T20:14:23.276Z,13.10
2019-05-22T20:17:05.749Z,13.10
2019-05-22T20:19:47.711Z,13.00
2019-05-22T20:22:29.842Z,13.00
2019-05-22T20:25:12.089Z,13.00
2019-05-22T20:27:54.368Z,13.00
2019-05-22T20:30:37.879Z,12.90
2019-05-22T20:33:20.394Z,12.90
2019-05-22T20:36:02.375Z,13.00
2019-05-22T20:38:44.815Z,13.00
2019-05-22T20:41:27.271Z,12.90
2019-05-22T20:44:09.800Z,12.80
2019-05-22T20:46:51.858Z,12.70
2019-05-22T20:49:34.120Z,12.70
2019-05-22T20:52:16.478Z,12.60
2019-05-22T20:54:59.524Z,12.60
2019-05-22T20:57:42.541Z,12.70
2019-05-22T21:00:25.834Z,12.70
2019-05-22T21:03:08.251Z,12.70
2019-05-22T21:05:51.182Z,12.70
2019-05-22T21:08:33.943Z,12.70
2019-05-22T21:11:16.243Z,12.70
2019-05-22T21:13:58.882Z,12.60
2019-05-22T21:16:41.531Z,12.60
2019-05-22T21:19:23.964Z,12.60
2019-05-22T21:22:06.733Z,12.60
2019-05-22T21:24:48.720Z,12.60
2019-05-22T21:27:31.297Z,12.60
2019-05-22T21:30:14.082Z,12.60
2019-05-22T21:32:56.727Z,12.50
2019-05-22T21:35:39.441Z,12.50
2019-05-22T21:38:22.711Z,12.50
2019-05-22T21:41:04.778Z,12.50
2019-05-22T21:43:47.685Z,12.50
2019-05-22T21:46:29.926Z,12.40
2019-05-22T21:49:13.571Z,12.40
2019-05-22T21:51:56.355Z,12.40
2019-05-22T21:54:38.384Z,12.40
2019-05-22T21:57:20.199Z,12.40
2019-05-22T22:00:02.292Z,12.30
2019-05-22T22:02:44.711Z,12.30
2019-05-22T22:05:27.703Z,12.30
2019-05-22T22:08:09.804Z,12.20
2019-05-22T22:10:52.770Z,12.10
2019-05-22T22:13:34.956Z,12.20
2019-05-22T22:16:17.754Z,12.20
2019-05-22T22:18:59.779Z,12.20
2019-05-22T22:21:42.980Z,12.10
2019-05-22T22:24:25.257Z,12.00
2019-05-22T22:27:07.442Z,12.00
2019-05-22T22:29:49.608Z,11.90
2019-05-22T22:32:33.876Z,11.90
2019-05-22T22:35:16.413Z,11.80
2019-05-22T22:37:58.721Z,11.80
2019-05-22T22:40:40.974Z,11.80
2019-05-22T22:43:22.708Z,11.80
2019-05-22T22:49:15.261Z,11.80
2019-05-22T22:51:57.290Z,11.70
2019-05-22T22:54:39.731Z,11.70
2019-05-22T22:57:22.171Z,11.70
2019-05-22T23:00:05.323Z,11.70
2019-05-22T23:02:48.253Z,11.60
2019-05-22T23:05:31.461Z,11.70
2019-05-22T23:08:14.452Z,11.60
2019-05-22T23:10:57.355Z,11.60
2019-05-22T23:13:40.829Z,11.50
2019-05-22T23:16:23.747Z,11.50
2019-05-22T23:19:06.752Z,11.50
2019-05-22T23:21:50.234Z,11.50
2019-05-22T23:24:32.874Z,11.50
2019-05-22T23:27:15.199Z,11.50
2019-05-22T23:29:57.771Z,11.40
2019-05-22T23:32:41.512Z,11.40
2019-05-22T23:35:25.003Z,11.40
2019-05-22T23:38:08.304Z,11.30
2019-05-22T23:40:50.367Z,11.20
2019-05-22T23:43:33.340Z,11.00
2019-05-22T23:46:17.023Z,11.00
2019-05-22T23:49:00.042Z,11.00
2019-05-22T23:51:42.076Z,11.00
2019-05-22T23:54:24.359Z,11.10
2019-05-22T23:57:08.158Z,11.10
2019-05-22T23:59:53.147Z,11.10
